createdAt,value
2018-07-30T05:23:43.737Z,54.76
2018-07-30T05:26:14.259Z,53.72
2018-07-30T05:28:45.640Z,54.14
2018-07-30T05:31:15.755Z,53.83
2018-07-30T05:33:45.952Z,53.46
2018-07-30T05:36:15.862Z,53.47
2018-07-30T05:38:45.872Z,53.72
2018-07-30T05:41:16.619Z,53.37
2018-07-30T05:43:46.711Z,53.73
2018-07-30T05:46:17.084Z,52.78
2018-07-30T05:48:47.034Z,53.59
2018-07-30T05:51:17.152Z,53.22
2018-07-30T05:53:47.402Z,52.93
2018-07-30T05:56:18.187Z,52.89
2018-07-30T05:58:48.393Z,53.38
2018-07-30T06:01:19.522Z,52.67
2018-07-30T06:03:50.227Z,52.77
2018-07-30T06:06:20.227Z,53.47
2018-07-30T06:08:50.799Z,53.58
2018-07-30T06:11:20.872Z,53.52
2018-07-30T06:13:50.761Z,53.59
2018-07-30T06:16:20.772Z,53.11
2018-07-30T06:18:50.791Z,52.89
2018-07-30T06:21:20.901Z,53.81
2018-07-30T06:23:50.796Z,53.64
2018-07-30T06:26:20.710Z,53.58
2018-07-30T06:28:51.037Z,53.52
2018-07-30T06:31:21.741Z,52.72
2018-07-30T06:33:51.864Z,52.67
2018-07-30T06:36:22.139Z,52.46
2018-07-30T06:38:52.496Z,52.67
2018-07-30T06:41:23.163Z,52.94
2018-07-30T06:43:53.159Z,52.20
2018-07-30T06:46:23.409Z,51.28
2018-07-30T06:48:53.464Z,51.72
2018-07-30T06:51:23.763Z,50.40
2018-07-30T06:53:53.900Z,50.90
2018-07-30T06:56:24.494Z,51.01
2018-07-30T06:58:54.539Z,50.86
2018-07-30T07:01:24.677Z,50.12
2018-07-30T07:03:54.751Z,50.91
2018-07-30T07:06:24.872Z,49.20
2018-07-30T07:08:54.994Z,49.37
2018-07-30T07:11:24.831Z,49.49
2018-07-30T07:13:54.867Z,48.86
2018-07-30T07:16:24.994Z,49.86
2018-07-30T07:18:55.191Z,49.33
2018-07-30T07:21:25.325Z,49.17
2018-07-30T07:23:55.723Z,49.42
2018-07-30T07:26:25.783Z,49.46
2018-07-30T07:28:55.858Z,48.87
2018-07-30T07:31:26.367Z,49.44
2018-07-30T07:33:56.775Z,49.91
2018-07-30T07:36:26.745Z,50.09
2018-07-30T07:38:56.748Z,49.29
2018-07-30T07:41:26.793Z,49.39
2018-07-30T07:43:56.950Z,49.71
2018-07-30T07:46:26.903Z,49.88
2018-07-30T07:48:57.023Z,49.32
2018-07-30T07:51:26.973Z,50.07
2018-07-30T07:53:57.048Z,49.48
2018-07-30T07:56:27.331Z,49.81
2018-07-30T07:58:57.605Z,49.60
2018-07-30T08:01:28.032Z,50.30
2018-07-30T08:03:58.092Z,50.03
2018-07-30T08:06:28.497Z,50.67
2018-07-30T08:08:59.216Z,50.43
2018-07-30T08:11:29.446Z,50.47
2018-07-30T08:13:59.544Z,51.35
2018-07-30T08:16:29.656Z,51.38
2018-07-30T08:18:59.775Z,50.97
2018-07-30T08:21:30.387Z,51.05
2018-07-30T08:24:00.436Z,51.44
2018-07-30T08:26:30.556Z,50.93
2018-07-30T08:29:00.736Z,51.17
2018-07-30T08:31:31.087Z,51.88
2018-07-30T08:34:01.165Z,51.10
2018-07-30T08:36:31.475Z,51.98
2018-07-30T08:39:01.698Z,51.77
2018-07-30T08:41:31.765Z,50.85
2018-07-30T08:44:01.932Z,51.39
2018-07-30T08:46:32.126Z,51.54
2018-07-30T08:49:02.152Z,51.58
2018-07-30T08:51:32.184Z,51.43
2018-07-30T08:54:02.178Z,50.36
2018-07-30T08:56:32.208Z,50.00
2018-07-30T08:59:02.348Z,50.92
2018-07-30T09:01:32.482Z,50.13
2018-07-30T09:04:02.907Z,49.71
2018-07-30T09:06:32.827Z,49.38
2018-07-30T09:09:02.939Z,50.08
2018-07-30T09:11:32.924Z,50.18
2018-07-30T09:14:02.983Z,49.84
2018-07-30T09:16:32.995Z,49.20
2018-07-30T09:19:02.926Z,48.58
2018-07-30T09:21:33.935Z,47.96
2018-07-30T09:24:04.223Z,47.45
2018-07-30T09:26:34.347Z,47.20
2018-07-30T09:29:04.587Z,47.00
2018-07-30T09:31:34.672Z,47.75
2018-07-30T09:34:04.669Z,46.59
2018-07-30T09:36:34.825Z,46.84
2018-07-30T09:39:06.859Z,46.42
2018-07-30T09:41:37.140Z,45.87
2018-07-30T09:44:07.365Z,46.53
2018-07-30T09:46:37.122Z,46.01
2018-07-30T09:49:07.846Z,45.63
2018-07-30T09:51:37.863Z,44.50
2018-07-30T09:54:07.891Z,43.70
2018-07-30T09:56:37.868Z,44.94
2018-07-30T09:59:07.751Z,45.46
2018-07-30T10:01:37.751Z,45.84
2018-07-30T10:04:07.517Z,45.69
2018-07-30T10:06:37.717Z,45.95
2018-07-30T10:09:11.015Z,44.51
2018-07-30T10:11:40.965Z,44.96
2018-07-30T10:14:10.975Z,45.15
2018-07-30T10:16:41.197Z,44.35
2018-07-30T10:19:11.186Z,44.33
2018-07-30T10:21:41.026Z,43.35
2018-07-30T10:24:11.106Z,44.04
2018-07-30T10:26:40.982Z,44.05
2018-07-30T10:29:11.043Z,43.23
2018-07-30T10:31:40.902Z,44.25
2018-07-30T10:34:10.898Z,44.41
2018-07-30T10:36:40.999Z,44.21
2018-07-30T10:39:10.936Z,44.70
2018-07-30T10:41:40.969Z,44.06
2018-07-30T10:44:10.918Z,44.02
2018-07-30T10:46:41.282Z,42.30
2018-07-30T10:49:11.624Z,41.13
2018-07-30T10:51:41.592Z,40.53
2018-07-30T10:54:11.622Z,39.35
2018-07-30T10:56:41.571Z,39.78
2018-07-30T10:59:11.698Z,39.68
2018-07-30T11:01:41.686Z,40.23
2018-07-30T11:04:12.172Z,39.34
2018-07-30T11:06:42.033Z,39.49
2018-07-30T11:09:13.803Z,40.44
2018-07-30T11:11:42.594Z,39.74
2018-07-30T11:14:12.364Z,38.58
2018-07-30T11:16:42.207Z,38.92
2018-07-30T11:19:12.250Z,38.46
2018-07-30T11:21:42.270Z,37.52
2018-07-30T11:24:12.576Z,36.12
2018-07-30T11:26:42.543Z,36.89
2018-07-30T11:29:12.590Z,35.75
2018-07-30T11:31:42.543Z,34.22
2018-07-30T11:34:12.313Z,34.94
2018-07-30T11:36:42.178Z,34.73
2018-07-30T11:39:13.530Z,34.80
2018-07-30T11:41:43.686Z,35.53
2018-07-30T11:44:14.414Z,35.84
2018-07-30T11:46:44.334Z,36.18
2018-07-30T11:49:14.220Z,35.63
2018-07-30T11:51:44.075Z,34.09
2018-07-30T11:54:14.887Z,34.47
2018-07-30T11:56:44.952Z,34.36
2018-07-30T11:59:14.837Z,33.08
2018-07-30T12:01:44.930Z,33.71
2018-07-30T12:04:15.123Z,32.71
2018-07-30T12:06:44.917Z,30.90
2018-07-30T12:09:15.167Z,32.22
2018-07-30T12:11:45.671Z,32.17
2018-07-30T12:14:16.535Z,31.56
2018-07-30T12:16:46.834Z,30.70
2018-07-30T12:19:17.797Z,30.81
2018-07-30T12:21:49.708Z,29.57
2018-07-30T12:24:20.011Z,29.34
2018-07-30T12:26:50.115Z,28.49
2018-07-30T12:29:19.893Z,29.48
2018-07-30T12:31:49.672Z,29.17
2018-07-30T12:34:19.514Z,28.96
2018-07-30T12:36:49.399Z,28.97
2018-07-30T12:39:19.342Z,28.44
2018-07-30T12:41:49.345Z,28.48
2018-07-30T12:44:19.690Z,28.94
2018-07-30T12:46:49.896Z,29.16
2018-07-30T12:49:19.849Z,29.89
2018-07-30T12:51:50.193Z,30.76
2018-07-30T12:54:20.237Z,30.84
2018-07-30T12:56:50.897Z,29.38
2018-07-30T12:59:21.020Z,28.88
2018-07-30T13:01:50.848Z,28.34
2018-07-30T13:04:20.591Z,28.50
2018-07-30T13:06:50.683Z,28.43
2018-07-30T13:09:20.730Z,28.53
2018-07-30T13:11:50.844Z,26.20
2018-07-30T13:14:20.809Z,27.13
2018-07-30T13:16:50.893Z,27.25
2018-07-30T13:19:20.684Z,27.07
2018-07-30T13:21:50.462Z,27.81
2018-07-30T13:24:21.235Z,28.01
2018-07-30T13:26:51.259Z,27.56
2018-07-30T13:29:21.280Z,27.17
2018-07-30T13:31:51.204Z,26.38
2018-07-30T13:34:21.291Z,26.72
2018-07-30T13:36:57.807Z,27.49
2018-07-30T13:39:27.733Z,26.80
2018-07-30T13:41:57.797Z,27.49
2018-07-30T13:44:27.879Z,26.77
2018-07-30T13:46:58.115Z,27.85
2018-07-30T13:49:27.939Z,27.34
2018-07-30T13:51:57.781Z,26.55
2018-07-30T13:54:28.443Z,27.28
2018-07-30T13:57:01.500Z,27.50
2018-07-30T13:59:31.530Z,27.30
2018-07-30T14:02:01.760Z,27.00
2018-07-30T14:04:31.537Z,26.91
2018-07-30T14:07:01.477Z,27.84
2018-07-30T14:09:31.551Z,27.23
2018-07-30T14:12:01.642Z,27.96
2018-07-30T14:14:32.486Z,27.41
2018-07-30T14:17:02.377Z,28.04
2018-07-30T14:19:32.235Z,27.90
2018-07-30T14:22:02.080Z,27.00
2018-07-30T14:24:32.250Z,27.85
2018-07-30T14:27:02.187Z,27.75
2018-07-30T14:29:32.000Z,28.01
2018-07-30T14:32:02.981Z,28.09
2018-07-30T14:34:32.849Z,27.58
2018-07-30T14:37:02.761Z,27.46
2018-07-30T14:39:32.922Z,28.38
2018-07-30T14:42:02.716Z,28.15
2018-07-30T14:44:32.962Z,28.33
2018-07-30T14:47:03.040Z,27.80
2018-07-30T14:49:33.413Z,27.82
2018-07-30T14:52:03.614Z,27.86
2018-07-30T14:54:33.911Z,27.37
2018-07-30T14:57:04.229Z,27.40
2018-07-30T14:59:34.495Z,27.64
2018-07-30T15:02:04.954Z,27.72
2018-07-30T15:04:35.201Z,27.99
2018-07-30T15:07:06.197Z,28.36
2018-07-30T15:09:36.453Z,28.46
2018-07-30T15:12:06.863Z,28.10
2018-07-30T15:14:37.375Z,28.24
2018-07-30T15:17:07.664Z,28.90
2018-07-30T15:19:38.048Z,29.16
2018-07-30T15:22:08.428Z,29.16
2018-07-30T15:24:38.608Z,29.23
2018-07-30T15:27:08.993Z,28.94
2018-07-30T15:29:38.931Z,28.28
2018-07-30T15:32:09.463Z,28.66
2018-07-30T15:34:39.593Z,29.10
2018-07-30T15:37:10.243Z,28.54
2018-07-30T15:39:40.675Z,28.41
2018-07-30T15:42:11.003Z,28.72
2018-07-30T15:44:41.729Z,29.71
2018-07-30T15:47:11.993Z,30.06
2018-07-30T15:49:42.823Z,29.42
2018-07-30T15:52:12.908Z,29.53
2018-07-30T15:54:43.385Z,29.94
2018-07-30T15:57:14.161Z,29.76
2018-07-30T15:59:44.726Z,30.32
2018-07-30T16:02:14.980Z,30.37
2018-07-30T16:04:45.207Z,31.27
2018-07-30T16:07:15.515Z,33.12
2018-07-30T16:09:45.650Z,34.33
2018-07-30T16:12:15.843Z,34.89
2018-07-30T16:14:46.186Z,34.93
2018-07-30T16:17:16.288Z,35.04
2018-07-30T16:19:46.413Z,35.49
2018-07-30T16:22:16.660Z,35.69
2018-07-30T16:24:47.125Z,36.60
2018-07-30T16:27:17.682Z,36.31
2018-07-30T16:29:47.902Z,36.72
2018-07-30T16:32:18.200Z,36.30
2018-07-30T16:34:48.432Z,37.07
2018-07-30T16:37:18.491Z,36.83
2018-07-30T16:39:48.756Z,37.69
2018-07-30T16:42:19.473Z,37.64
2018-07-30T16:44:49.562Z,38.17
2018-07-30T16:47:19.745Z,37.31
2018-07-30T16:49:50.507Z,37.84
2018-07-30T16:54:55.672Z,37.75
2018-07-30T16:57:25.621Z,37.56
2018-07-30T16:59:55.796Z,37.14
2018-07-30T17:02:26.095Z,38.23
2018-07-30T17:04:56.342Z,37.82
2018-07-30T17:07:26.650Z,38.32
2018-07-30T17:09:57.492Z,38.89
2018-07-30T17:12:28.130Z,39.20
2018-07-30T17:14:58.862Z,38.50
2018-07-30T17:17:29.116Z,38.69
2018-07-30T17:19:59.194Z,39.77
2018-07-30T17:22:29.453Z,39.35
2018-07-30T17:24:59.699Z,39.36
2018-07-30T17:27:30.023Z,39.04
2018-07-30T17:30:00.375Z,39.31
2018-07-30T17:32:30.914Z,38.64
2018-07-30T17:35:01.516Z,39.51
2018-07-30T17:37:32.789Z,38.54
2018-07-30T17:40:03.241Z,38.68
2018-07-30T17:42:33.611Z,38.65
2018-07-30T17:45:05.408Z,38.59
2018-07-30T17:47:37.743Z,37.64
2018-07-30T17:50:08.787Z,38.93
2018-07-30T17:52:39.377Z,38.57
2018-07-30T17:55:09.763Z,38.88
2018-07-30T17:57:40.387Z,38.42
2018-07-30T18:00:11.392Z,37.89
2018-07-30T18:02:41.576Z,38.04
2018-07-30T18:05:12.084Z,38.24
2018-07-30T18:07:42.464Z,39.98
2018-07-30T18:10:12.994Z,40.95
2018-07-30T18:12:43.288Z,40.94
2018-07-30T18:15:19.347Z,42.06
2018-07-30T18:17:49.619Z,41.56
2018-07-30T18:20:19.853Z,42.50
2018-07-30T18:22:50.259Z,42.75
2018-07-30T18:25:20.185Z,42.67
2018-07-30T18:27:50.466Z,43.08
2018-07-30T18:30:20.622Z,42.41
2018-07-30T18:32:50.943Z,43.29
2018-07-30T18:35:21.121Z,42.91
2018-07-30T18:37:51.598Z,43.61
2018-07-30T18:40:22.348Z,43.76
2018-07-30T18:42:53.424Z,43.67
2018-07-30T18:45:23.582Z,43.05
2018-07-30T18:47:53.535Z,43.36
2018-07-30T18:50:23.855Z,43.85
2018-07-30T18:52:54.125Z,43.28
2018-07-30T18:55:24.511Z,43.14
2018-07-30T18:57:54.700Z,43.34
2018-07-30T19:00:24.809Z,43.56
2018-07-30T19:02:55.357Z,42.76
2018-07-30T19:05:26.946Z,42.69
2018-07-30T19:07:57.470Z,42.49
2018-07-30T19:10:27.731Z,42.59
2018-07-30T19:12:57.931Z,42.04
2018-07-30T19:15:28.117Z,42.50
2018-07-30T19:17:58.586Z,41.99
2018-07-30T19:20:29.418Z,42.49
2018-07-30T19:22:59.805Z,41.78
2018-07-30T19:25:29.883Z,41.65
2018-07-30T19:28:00.372Z,42.86
2018-07-30T19:30:30.398Z,43.52
2018-07-30T19:33:00.963Z,42.70
2018-07-30T19:35:31.130Z,43.56
2018-07-30T19:38:01.281Z,43.92
2018-07-30T19:40:31.626Z,43.57
2018-07-30T19:43:01.860Z,44.35
2018-07-30T19:45:32.284Z,44.02
2018-07-30T19:48:08.560Z,43.89
2018-07-30T19:50:38.746Z,45.02
2018-07-30T19:53:09.387Z,44.44
2018-07-30T19:55:39.998Z,45.53
2018-07-30T19:58:11.365Z,45.53
2018-07-30T20:00:41.931Z,45.88
2018-07-30T20:03:12.808Z,45.38
2018-07-30T20:05:43.216Z,46.06
2018-07-30T20:08:13.702Z,45.66
2018-07-30T20:10:44.113Z,46.62
2018-07-30T20:13:14.709Z,46.51
2018-07-30T20:15:45.260Z,46.78
2018-07-30T20:18:15.383Z,45.73
2018-07-30T20:20:46.015Z,46.64
2018-07-30T20:23:16.641Z,45.85
2018-07-30T20:25:46.922Z,46.48
2018-07-30T20:28:17.275Z,45.81
2018-07-30T20:30:47.622Z,46.22
2018-07-30T20:33:18.763Z,46.62
2018-07-30T20:35:49.127Z,45.93
2018-07-30T20:38:19.887Z,45.80
2018-07-30T20:40:49.989Z,46.14
2018-07-30T20:43:20.351Z,47.09
2018-07-30T20:45:50.519Z,47.28
2018-07-30T20:48:21.748Z,47.50
2018-07-30T20:50:51.993Z,46.67
2018-07-30T20:53:22.271Z,46.36
2018-07-30T20:55:52.431Z,47.05
2018-07-30T20:58:22.627Z,47.16
2018-07-30T21:00:52.813Z,47.40
2018-07-30T21:03:23.016Z,47.38
2018-07-30T21:05:53.957Z,46.93
2018-07-30T21:08:24.247Z,47.26
2018-07-30T21:10:54.731Z,46.29
2018-07-30T21:13:24.878Z,46.64
2018-07-30T21:15:55.795Z,46.60
2018-07-30T21:18:25.981Z,45.81
2018-07-30T21:20:56.671Z,45.71
2018-07-30T21:23:26.909Z,46.42
2018-07-30T21:25:57.339Z,45.79
2018-07-30T21:28:27.535Z,46.02
2018-07-30T21:30:58.126Z,46.49
2018-07-30T21:33:28.346Z,45.89
2018-07-30T21:36:01.577Z,46.27
2018-07-30T21:38:31.853Z,46.09
2018-07-30T21:41:02.411Z,46.66
2018-07-30T21:43:32.502Z,46.41
2018-07-30T21:46:02.771Z,46.17
2018-07-30T21:48:33.032Z,47.13
2018-07-30T21:51:03.000Z,47.17
2018-07-30T21:53:33.102Z,47.34
2018-07-30T21:56:03.335Z,46.57
2018-07-30T21:58:33.503Z,47.39
2018-07-30T22:01:03.674Z,47.64
2018-07-30T22:03:33.546Z,47.40
2018-07-30T22:06:03.871Z,46.91
2018-07-30T22:08:33.992Z,47.56
2018-07-30T22:11:04.068Z,47.35
2018-07-30T22:13:34.287Z,47.20
2018-07-30T22:16:04.906Z,47.59
2018-07-30T22:18:35.312Z,47.97
2018-07-30T22:21:05.583Z,47.62
2018-07-30T22:23:35.971Z,48.60
2018-07-30T22:26:06.315Z,48.10
2018-07-30T22:28:36.555Z,48.43
2018-07-30T22:31:07.519Z,48.29
2018-07-30T22:33:37.710Z,48.78
2018-07-30T22:36:07.912Z,48.46
2018-07-30T22:38:38.024Z,49.45
2018-07-30T22:41:08.452Z,49.68
2018-07-30T22:43:38.771Z,49.06
2018-07-30T22:46:08.666Z,49.19
2018-07-30T22:48:38.881Z,49.71
2018-07-30T22:51:09.342Z,49.87
2018-07-30T22:53:39.342Z,49.17
2018-07-30T22:56:09.466Z,49.54
2018-07-30T22:58:40.016Z,49.48
2018-07-30T23:01:10.200Z,49.55
2018-07-30T23:03:40.477Z,50.37
2018-07-30T23:06:10.656Z,50.51
2018-07-30T23:08:41.558Z,49.34
2018-07-30T23:11:11.526Z,50.68
2018-07-30T23:13:42.679Z,50.95
2018-07-30T23:16:12.992Z,50.82
2018-07-30T23:18:43.283Z,51.11
2018-07-30T23:21:13.945Z,51.39
2018-07-30T23:23:44.067Z,51.13
2018-07-30T23:26:14.091Z,51.78
2018-07-30T23:28:44.367Z,52.02
2018-07-30T23:31:14.680Z,51.94
2018-07-30T23:33:45.183Z,52.04
2018-07-30T23:36:15.376Z,52.13
2018-07-30T23:38:45.615Z,51.43
2018-07-30T23:41:15.787Z,52.21
2018-07-30T23:43:45.883Z,51.64
2018-07-30T23:46:16.046Z,51.47
2018-07-30T23:48:46.610Z,51.96
2018-07-30T23:51:16.718Z,51.78
2018-07-30T23:53:48.267Z,52.39
2018-07-30T23:56:18.548Z,52.46
2018-07-30T23:58:49.220Z,52.36
